Time;durP1;ratioP1;P1;durP2;ratioP2;P2;SDS_P1;SDS_P2;PMS_P1;PMS_P2;Temp;Humidity;BMP_temperature;BMP_pressure;BME280_temperature;BME280_humidity;BME280_pressure;Samples;Min_cycle;Max_cycle;Signal;HPM_P1;HPM_P2
2021/06/11 00:01:25;;;;;;;2.80;2.20;;;19.70;99.10;;;;;;5107588;28;20016;-82
2021/06/11 00:03:57;;;;;;;4.20;2.25;;;19.70;99.20;;;;;;5107703;28;20035;-81
2021/06/11 00:06:31;;;;;;;2.88;2.10;;;19.60;99.30;;;;;;5107197;28;20142;-82
2021/06/11 00:09:07;;;;;;;3.20;2.47;;;19.60;99.50;;;;;;5109186;28;20156;-82
2021/06/11 00:11:35;;;;;;;3.15;2.50;;;19.60;99.70;;;;;;5109455;28;20028;-83
2021/06/11 00:14:04;;;;;;;4.22;2.38;;;19.60;99.80;;;;;;5108848;28;20023;-80
2021/06/11 00:16:40;;;;;;;2.80;2.10;;;19.60;99.90;;;;;;5105908;28;20031;-81
2021/06/11 00:19:06;;;;;;;3.00;2.10;;;19.50;99.90;;;;;;5094921;28;20024;-82
2021/06/11 00:21:35;;;;;;;3.95;2.28;;;19.50;99.90;;;;;;5107466;28;20491;-81
2021/06/11 00:24:00;;;;;;;3.05;2.30;;;19.50;99.90;;;;;;5109806;28;20060;-82
2021/06/11 00:26:26;;;;;;;3.20;2.22;;;19.40;99.90;;;;;;5113536;28;20115;-82
2021/06/11 00:28:52;;;;;;;2.45;2.05;;;19.50;99.90;;;;;;5129102;28;20023;-80
2021/06/11 00:31:22;;;;;;;3.20;2.35;;;19.40;99.90;;;;;;5120207;28;20015;-82
2021/06/11 00:33:51;;;;;;;2.90;2.40;;;19.40;99.90;;;;;;5116453;28;20490;-82
2021/06/11 00:36:17;;;;;;;2.97;2.50;;;19.40;99.90;;;;;;5116390;28;20019;-82
2021/06/11 00:38:43;;;;;;;3.85;2.65;;;19.40;99.90;;;;;;5117092;28;20536;-83
2021/06/11 00:41:09;;;;;;;3.17;2.15;;;19.30;99.90;;;;;;5115724;28;20024;-84
2021/06/11 00:43:37;;;;;;;3.22;2.35;;;19.30;99.90;;;;;;5117456;28;20020;-83
2021/06/11 00:46:03;;;;;;;3.97;2.38;;;19.20;99.90;;;;;;5115898;28;20464;-82
2021/06/11 00:48:31;;;;;;;6.72;2.70;;;19.20;99.90;;;;;;5116579;28;20036;-82
2021/06/11 00:51:00;;;;;;;4.45;2.72;;;19.10;99.90;;;;;;5114141;28;20036;-83
2021/06/11 00:53:26;;;;;;;2.97;2.20;;;19.10;99.90;;;;;;5115472;28;20025;-83
2021/06/11 00:55:52;;;;;;;3.65;2.55;;;19.00;99.90;;;;;;5122017;28;20024;-82
2021/06/11 00:58:19;;;;;;;3.63;2.72;;;19.00;99.90;;;;;;5138145;28;20016;-83
2021/06/11 01:00:48;;;;;;;3.95;2.53;;;19.00;99.90;;;;;;5123704;28;20031;-83
2021/06/11 01:03:15;;;;;;;2.95;2.28;;;19.00;99.90;;;;;;5115911;28;20038;-82
2021/06/11 01:05:42;;;;;;;3.10;2.33;;;18.90;99.90;;;;;;5116031;28;20082;-83
2021/06/11 01:08:10;;;;;;;5.22;2.30;;;18.90;99.90;;;;;;5115361;28;20115;-83
2021/06/11 01:10:40;;;;;;;3.60;2.53;;;18.90;99.90;;;;;;5115716;28;20028;-82
2021/06/11 01:13:14;;;;;;;3.33;2.35;;;18.90;99.90;;;;;;5098565;28;20011;-82
2021/06/11 01:15:42;;;;;;;4.20;2.90;;;18.90;99.90;;;;;;5115246;28;20023;-84
2021/06/11 01:18:12;;;;;;;4.25;2.67;;;18.90;99.90;;;;;;5114898;28;20463;-82
2021/06/11 01:20:38;;;;;;;3.58;2.67;;;18.80;99.90;;;;;;5115493;28;20471;-83
2021/06/11 01:23:18;;;;;;;3.88;2.53;;;18.80;99.90;;;;;;5115359;28;20016;-84
2021/06/11 01:26:16;;;;;;;3.92;2.80;;;18.80;99.90;;;;;;5115568;28;20528;-83
2021/06/11 01:28:44;;;;;;;3.95;2.97;;;18.80;99.90;;;;;;5116913;28;20051;-82
2021/06/11 01:31:17;;;;;;;5.05;3.08;;;18.70;99.90;;;;;;5117181;28;20019;-83
2021/06/11 01:33:54;;;;;;;5.35;3.20;;;18.70;99.90;;;;;;5115175;28;20460;-84
2021/06/11 01:36:24;;;;;;;3.67;2.92;;;18.60;99.90;;;;;;5115499;28;20023;-83
2021/06/11 01:38:56;;;;;;;4.32;3.00;;;18.60;99.90;;;;;;5115844;28;20077;-83
2021/06/11 01:41:23;;;;;;;3.92;2.80;;;18.50;99.90;;;;;;5116650;28;20016;-83
2021/06/11 01:43:53;;;;;;;4.30;3.38;;;18.50;99.90;;;;;;5114163;28;20030;-83
2021/06/11 01:46:26;;;;;;;5.63;3.38;;;18.50;99.90;;;;;;5115098;28;20490;-84
2021/06/11 01:48:56;;;;;;;3.72;3.13;;;18.50;99.90;;;;;;5116214;28;20028;-83
2021/06/11 01:51:22;;;;;;;4.50;3.53;;;18.40;99.90;;;;;;5114732;28;20110;-83
2021/06/11 01:53:54;;;;;;;4.57;3.58;;;18.40;99.90;;;;;;5114967;28;20111;-83
2021/06/11 01:56:32;;;;;;;4.43;3.25;;;18.40;99.90;;;;;;5114969;28;20034;-83
2021/06/11 01:58:58;;;;;;;4.10;3.28;;;18.40;99.90;;;;;;5115092;28;20028;-83
2021/06/11 02:01:29;;;;;;;4.47;3.22;;;18.40;99.90;;;;;;5115191;28;20057;-84
2021/06/11 02:03:59;;;;;;;5.90;3.35;;;18.40;99.90;;;;;;5114861;28;20064;-82
2021/06/11 02:06:31;;;;;;;4.75;3.45;;;18.30;99.90;;;;;;5115577;28;20139;-83
2021/06/11 02:09:11;;;;;;;5.35;3.67;;;18.30;99.90;;;;;;5115438;28;20535;-83
2021/06/11 02:11:44;;;;;;;4.60;3.13;;;18.20;99.90;;;;;;5114532;28;20075;-83
2021/06/11 02:14:14;;;;;;;4.07;2.83;;;18.20;99.90;;;;;;5114505;28;20044;-83
2021/06/11 02:16:44;;;;;;;4.13;3.30;;;18.20;99.90;;;;;;5115450;28;20027;-82
2021/06/11 02:19:14;;;;;;;4.65;3.50;;;18.10;99.90;;;;;;5115478;28;20436;-83
2021/06/11 02:21:44;;;;;;;5.43;3.63;;;18.10;99.90;;;;;;5115410;28;20060;-82
2021/06/11 02:24:12;;;;;;;5.53;3.88;;;18.10;99.90;;;;;;5114266;28;20035;-82
2021/06/11 02:26:43;;;;;;;4.75;3.80;;;18.10;99.90;;;;;;5113587;28;20078;-83
2021/06/11 02:29:10;;;;;;;6.22;4.05;;;18.10;99.90;;;;;;5114410;28;20023;-83
2021/06/11 02:31:41;;;;;;;7.03;4.63;;;18.00;99.90;;;;;;5126472;27;20027;-82
2021/06/11 02:34:13;;;;;;;5.53;4.13;;;18.00;99.90;;;;;;5127485;28;20470;-83
2021/06/11 02:36:39;;;;;;;6.72;4.72;;;18.00;99.90;;;;;;5116851;28;20118;-83
2021/06/11 02:39:08;;;;;;;6.00;5.03;;;18.00;99.90;;;;;;5115809;28;20054;-83
2021/06/11 02:41:43;;;;;;;6.15;4.80;;;17.90;99.90;;;;;;5114292;28;20031;-82
2021/06/11 02:44:11;;;;;;;7.53;5.47;;;17.90;99.90;;;;;;5116381;28;20379;-83
2021/06/11 02:46:50;;;;;;;5.78;4.55;;;17.90;99.90;;;;;;5128487;28;20035;-80
2021/06/11 02:49:50;;;;;;;6.60;5.20;;;17.90;99.90;;;;;;5110945;28;20027;-82
2021/06/11 02:52:22;;;;;;;7.10;5.60;;;17.90;99.90;;;;;;5116176;28;20023;-82
2021/06/11 02:54:55;;;;;;;7.13;5.22;;;17.80;99.90;;;;;;5115599;28;20031;-82
2021/06/11 02:57:35;;;;;;;7.47;5.35;;;17.80;99.90;;;;;;5115515;28;20016;-83
2021/06/11 03:00:11;;;;;;;7.05;5.85;;;17.80;99.90;;;;;;5113861;28;20019;-82
2021/06/11 03:02:51;;;;;;;8.63;5.80;;;17.80;99.90;;;;;;5113920;28;20077;-83
2021/06/11 03:05:22;;;;;;;7.65;5.72;;;17.80;99.90;;;;;;5099895;28;20055;-83
2021/06/11 03:07:54;;;;;;;7.38;5.90;;;17.70;99.90;;;;;;5113631;28;20086;-83
2021/06/11 03:10:29;;;;;;;7.78;5.72;;;17.70;99.90;;;;;;5113549;28;20019;-83
2021/06/11 03:13:00;;;;;;;7.25;5.80;;;17.70;99.90;;;;;;5096816;28;20490;-83
2021/06/11 03:15:31;;;;;;;8.43;6.15;;;17.70;99.90;;;;;;5114400;28;20027;-83
2021/06/11 03:18:01;;;;;;;8.13;6.65;;;17.70;99.90;;;;;;5112806;28;20058;-82
2021/06/11 03:20:32;;;;;;;7.57;6.32;;;17.60;99.90;;;;;;5113345;28;20436;-82
2021/06/11 03:23:19;;;;;;;7.63;6.07;;;17.60;99.90;;;;;;5113217;28;20467;-83
2021/06/11 03:25:49;;;;;;;8.75;5.95;;;17.60;99.90;;;;;;5114189;28;20027;-83
2021/06/11 03:28:35;;;;;;;7.53;6.20;;;17.60;99.90;;;;;;5114184;28;20176;-83
2021/06/11 03:31:02;;;;;;;7.35;6.00;;;17.60;99.90;;;;;;5114543;28;20051;-84
2021/06/11 03:33:33;;;;;;;7.63;6.18;;;17.60;99.90;;;;;;5114162;28;20400;-83
2021/06/11 03:36:05;;;;;;;8.02;6.60;;;17.60;99.90;;;;;;5112986;28;20107;-84
2021/06/11 03:38:33;;;;;;;8.38;6.43;;;17.50;99.90;;;;;;5114558;28;20036;-83
2021/06/11 03:41:00;;;;;;;8.60;6.88;;;17.60;99.90;;;;;;5114539;28;20024;-83
2021/06/11 03:43:33;;;;;;;9.63;7.65;;;17.50;99.90;;;;;;5114322;28;20098;-83
2021/06/11 03:46:05;;;;;;;8.20;7.07;;;17.50;99.90;;;;;;5112594;28;20076;-83
2021/06/11 03:48:32;;;;;;;9.25;7.22;;;17.50;99.90;;;;;;5113864;28;20116;-83
2021/06/11 03:51:05;;;;;;;8.30;6.55;;;17.50;99.90;;;;;;5112709;28;20034;-83
2021/06/11 03:53:35;;;;;;;;;;;17.50;99.90;;;;;;5112428;28;20016;-83
2021/06/11 03:56:08;;;;;;;8.45;6.45;;;17.50;99.90;;;;;;5112764;28;19908;-83
2021/06/11 03:58:47;;;;;;;8.25;6.57;;;17.40;99.90;;;;;;5112711;28;20051;-83
2021/06/11 04:01:27;;;;;;;10.40;7.15;;;17.40;99.90;;;;;;5098327;28;20046;-82
2021/06/11 04:03:56;;;;;;;9.02;7.30;;;17.50;99.90;;;;;;5114177;28;20020;-83
2021/06/11 04:06:35;;;;;;;9.90;7.30;;;17.50;99.90;;;;;;5112139;28;20055;-83
2021/06/11 04:09:10;;;;;;;8.52;6.78;;;17.50;99.90;;;;;;5112501;28;20083;-83
2021/06/11 04:11:42;;;;;;;8.95;7.40;;;17.50;99.90;;;;;;5114128;28;20023;-83
2021/06/11 04:14:21;;;;;;;7.82;6.82;;;17.50;99.90;;;;;;5112625;28;20443;-83
2021/06/11 04:16:53;;;;;;;9.10;6.93;;;17.50;99.90;;;;;;5113708;28;20023;-82
2021/06/11 04:19:27;;;;;;;10.00;7.82;;;17.50;99.90;;;;;;5112446;28;20027;-83
2021/06/11 04:21:56;;;;;;;9.65;7.15;;;17.50;99.90;;;;;;5112624;28;20076;-82
2021/06/11 04:24:30;;;;;;;9.82;7.40;;;17.50;99.90;;;;;;5113721;28;20439;-83
2021/06/11 04:27:05;;;;;;;8.25;6.50;;;17.60;99.90;;;;;;5111848;28;20032;-83
2021/06/11 04:29:36;;;;;;;8.50;7.00;;;17.50;99.90;;;;;;5112443;28;20016;-84
2021/06/11 04:32:02;;;;;;;9.88;7.88;;;17.60;99.90;;;;;;5115180;28;20047;-82
2021/06/11 04:34:31;;;;;;;13.57;7.95;;;17.60;99.90;;;;;;5124421;28;20008;-82
2021/06/11 04:36:57;;;;;;;11.77;8.13;;;17.60;99.90;;;;;;5135806;27;20023;-83
2021/06/11 04:39:29;;;;;;;10.40;8.25;;;17.70;99.90;;;;;;5117043;28;20443;-83
2021/06/11 04:41:58;;;;;;;12.35;8.68;;;17.60;99.90;;;;;;5113577;28;20237;-84
2021/06/11 04:44:24;;;;;;;11.77;8.73;;;17.70;99.90;;;;;;5112728;28;20459;-83
2021/06/11 04:46:55;;;;;;;11.43;8.77;;;17.70;99.90;;;;;;5112299;28;20028;-83
2021/06/11 04:49:24;;;;;;;13.30;10.40;;;17.70;99.90;;;;;;5113943;28;20032;-83
2021/06/11 04:51:52;;;;;;;13.43;11.00;;;17.70;99.90;;;;;;5096245;28;20031;-83
2021/06/11 04:54:22;;;;;;;12.95;10.52;;;17.70;99.90;;;;;;5113157;28;20024;-83
2021/06/11 04:56:48;;;;;;;14.40;12.07;;;17.80;99.90;;;;;;5112526;28;20034;-83
2021/06/11 04:59:21;;;;;;;15.25;11.75;;;17.80;99.90;;;;;;5112025;28;20011;-83
2021/06/11 05:01:53;;;;;;;14.40;11.55;;;17.80;99.90;;;;;;5112219;28;20026;-84
2021/06/11 05:04:22;;;;;;;13.60;10.80;;;17.80;99.90;;;;;;5113848;28;20103;-84
2021/06/11 05:06:52;;;;;;;16.30;13.05;;;17.90;99.90;;;;;;5112005;28;20043;-83
2021/06/11 05:09:18;;;;;;;16.23;12.55;;;17.90;99.90;;;;;;5111801;28;20031;-82
2021/06/11 05:11:52;;;;;;;15.35;12.70;;;17.90;99.90;;;;;;5113285;28;20387;-83
2021/06/11 05:14:23;;;;;;;16.25;13.00;;;17.90;99.90;;;;;;5116682;28;20024;-83
2021/06/11 05:16:50;;;;;;;18.15;14.25;;;17.80;99.90;;;;;;5116300;27;20023;-83
2021/06/11 05:19:18;;;;;;;16.40;12.93;;;17.90;99.90;;;;;;5126644;27;20020;-83
2021/06/11 05:21:47;;;;;;;15.25;12.10;;;17.90;99.90;;;;;;5126636;27;20095;-83
2021/06/11 05:24:15;;;;;;;15.20;12.43;;;18.00;99.90;;;;;;5124970;27;20020;-84
2021/06/11 05:26:50;;;;;;;17.02;13.25;;;18.00;99.90;;;;;;5118537;27;20379;-83
2021/06/11 05:29:19;;;;;;;14.60;11.98;;;18.00;99.90;;;;;;5114873;28;20066;-83
2021/06/11 05:31:50;;;;;;;13.48;10.98;;;18.00;99.90;;;;;;5116491;28;20016;-83
2021/06/11 05:34:19;;;;;;;15.57;11.13;;;18.10;99.90;;;;;;5115596;28;20024;-83
2021/06/11 05:36:48;;;;;;;13.55;10.23;;;18.20;99.90;;;;;;5116333;28;20028;-83
2021/06/11 05:39:15;;;;;;;19.40;12.65;;;18.20;99.90;;;;;;5114230;28;20616;-84
2021/06/11 05:41:52;;;;;;;15.65;12.57;;;18.30;99.90;;;;;;5115325;28;20455;-82
2021/06/11 05:44:21;;;;;;;16.08;12.40;;;18.30;99.90;;;;;;5115252;28;20024;-85
2021/06/11 05:46:50;;;;;;;18.15;15.02;;;18.30;99.90;;;;;;5114868;28;20375;-83
2021/06/11 05:49:29;;;;;;;15.02;12.18;;;18.30;99.90;;;;;;5115310;28;20038;-84
2021/06/11 05:51:58;;;;;;;13.32;11.70;;;18.30;99.90;;;;;;5115188;28;20073;-84
2021/06/11 05:54:32;;;;;;;13.68;11.32;;;18.40;99.90;;;;;;5114271;28;20020;-83
2021/06/11 05:57:10;;;;;;;13.63;10.98;;;18.40;99.90;;;;;;5116315;28;20030;-84
2021/06/11 05:59:46;;;;;;;17.00;12.27;;;18.40;99.90;;;;;;5115622;28;20032;-83
2021/06/11 06:02:12;;;;;;;15.13;11.27;;;18.40;99.90;;;;;;5114584;28;20104;-84
2021/06/11 06:04:40;;;;;;;11.45;9.55;;;18.50;99.90;;;;;;5116603;28;20062;-84
2021/06/11 06:07:20;;;;;;;13.05;9.50;;;18.60;99.90;;;;;;5115629;28;20079;-84
2021/06/11 06:10:05;;;;;;;11.50;8.70;;;18.70;99.90;;;;;;5116000;28;20031;-83
2021/06/11 06:12:40;;;;;;;11.07;8.20;;;18.80;99.90;;;;;;5115046;28;20383;-84
2021/06/11 06:15:14;;;;;;;11.82;8.32;;;18.90;99.90;;;;;;5098377;28;20030;-84
2021/06/11 06:17:42;;;;;;;10.35;7.88;;;19.00;99.90;;;;;;5114795;28;20474;-84
2021/06/11 06:20:18;;;;;;;10.15;7.95;;;19.10;99.90;;;;;;5116733;28;20019;-84
2021/06/11 06:22:46;;;;;;;12.50;9.38;;;19.00;99.90;;;;;;5126416;28;20031;-82
2021/06/11 06:25:18;;;;;;;10.38;7.60;;;19.10;99.90;;;;;;5132642;28;20039;-84
2021/06/11 06:27:44;;;;;;;16.23;11.13;;;19.10;99.90;;;;;;5117106;28;20047;-85
2021/06/11 06:30:12;;;;;;;12.93;8.73;;;19.10;99.90;;;;;;5116634;28;20027;-84
2021/06/11 06:32:44;;;;;;;11.75;9.30;;;19.00;99.90;;;;;;5115633;28;20095;-84
2021/06/11 06:35:11;;;;;;;10.40;8.38;;;19.10;99.90;;;;;;5114748;28;20119;-85
2021/06/11 06:37:37;;;;;;;12.55;9.38;;;19.20;99.90;;;;;;5115677;28;20019;-83
2021/06/11 06:40:07;;;;;;;15.55;11.00;;;19.20;99.90;;;;;;5126116;28;20107;-83
2021/06/11 06:42:36;;;;;;;13.07;9.57;;;19.30;99.90;;;;;;5121293;28;20035;-84
2021/06/11 06:45:05;;;;;;;14.10;10.68;;;19.30;99.90;;;;;;5116359;28;20023;-84
2021/06/11 06:47:51;;;;;;;11.63;8.60;;;19.30;99.90;;;;;;5116057;28;20026;-84
2021/06/11 06:50:21;;;;;;;8.98;6.93;;;19.40;99.90;;;;;;5114883;28;20016;-84
2021/06/11 06:52:55;;;;;;;12.23;9.50;;;19.40;99.90;;;;;;5113864;28;20022;-85
2021/06/11 06:55:24;;;;;;;11.90;8.93;;;19.50;99.90;;;;;;5113783;28;20496;-85
2021/06/11 06:57:55;;;;;;;11.93;9.18;;;19.50;99.90;;;;;;5113784;28;20433;-84
2021/06/11 07:00:26;;;;;;;14.65;10.90;;;19.50;99.90;;;;;;5114949;28;20375;-84
2021/06/11 07:03:32;;;;;;;15.70;12.80;;;19.50;99.90;;;;;;5115046;28;20524;-84
2021/06/11 07:06:02;;;;;;;13.90;10.90;;;19.50;99.90;;;;;;5114743;28;20075;-84
2021/06/11 07:08:33;;;;;;;16.73;11.98;;;19.50;99.90;;;;;;5113970;28;20100;-84
2021/06/11 07:10:59;;;;;;;15.32;12.80;;;19.60;99.90;;;;;;5113523;28;20376;-85
2021/06/11 07:13:34;;;;;;;18.20;14.23;;;19.70;99.90;;;;;;5113528;28;20016;-84
2021/06/11 07:16:35;;;;;;;15.75;11.32;;;19.70;99.90;;;;;;5114818;27;20028;-84
2021/06/11 07:19:04;;;;;;;15.50;12.52;;;19.70;99.90;;;;;;5114011;28;20030;-84
2021/06/11 07:21:44;;;;;;;18.52;14.55;;;19.70;99.90;;;;;;5113612;28;20012;-84
2021/06/11 07:24:16;;;;;;;24.80;18.60;;;19.80;99.90;;;;;;5115056;28;20478;-84
2021/06/11 07:26:46;;;;;;;21.63;16.85;;;19.80;99.90;;;;;;5114905;28;20043;-84
2021/06/11 07:29:12;;;;;;;20.92;16.17;;;19.80;99.90;;;;;;5114519;28;20098;-84
2021/06/11 07:31:47;;;;;;;18.83;14.23;;;19.90;99.90;;;;;;5113277;28;20468;-85
2021/06/11 07:34:28;;;;;;;20.38;14.93;;;19.90;99.90;;;;;;5113375;28;20039;-84
2021/06/11 07:36:57;;;;;;;21.00;14.43;;;20.00;99.90;;;;;;5114072;28;20102;-85
2021/06/11 07:39:29;;;;;;;24.77;15.77;;;20.00;99.90;;;;;;5112649;28;20019;-84
2021/06/11 07:41:58;;;;;;;19.08;13.98;;;20.00;99.90;;;;;;5113490;28;20055;-83
2021/06/11 07:44:26;;;;;;;22.42;15.50;;;20.00;99.90;;;;;;5112887;28;20062;-84
2021/06/11 07:46:58;;;;;;;20.02;14.90;;;19.90;99.90;;;;;;5113968;28;20092;-84
2021/06/11 07:49:35;;;;;;;21.30;16.27;;;19.90;99.90;;;;;;5112236;28;20023;-84
2021/06/11 07:52:10;;;;;;;20.02;13.82;;;19.90;99.90;;;;;;5120104;27;20027;-84
2021/06/11 07:54:48;;;;;;;14.48;11.13;;;19.90;99.90;;;;;;5119775;27;20028;-84
2021/06/11 07:57:27;;;;;;;17.20;13.20;;;19.90;99.90;;;;;;5097081;28;20024;-85
2021/06/11 08:00:04;;;;;;;19.58;14.90;;;20.10;99.90;;;;;;5113720;28;20037;-84
2021/06/11 08:02:40;;;;;;;19.65;15.68;;;20.10;99.90;;;;;;5112741;28;20102;-85
2021/06/11 08:05:07;;;;;;;17.05;13.35;;;20.00;99.90;;;;;;5096262;28;20396;-86
2021/06/11 08:07:33;;;;;;;15.32;12.02;;;19.90;99.90;;;;;;5114779;28;20016;-85
2021/06/11 08:10:00;;;;;;;16.88;13.55;;;20.00;99.90;;;;;;5121827;28;20119;-85
2021/06/11 08:12:32;;;;;;;15.07;12.00;;;20.10;99.90;;;;;;5111822;28;20032;-84
2021/06/11 08:15:00;;;;;;;13.25;9.88;;;20.10;99.90;;;;;;5122106;28;20032;-84
2021/06/11 08:17:38;;;;;;;14.32;10.80;;;20.20;99.90;;;;;;5095043;28;20020;-83
2021/06/11 08:20:24;;;;;;;19.80;14.18;;;20.30;99.90;;;;;;5113487;28;20363;-85
2021/06/11 08:22:52;;;;;;;16.65;13.38;;;20.40;99.90;;;;;;5113902;28;20027;-84
2021/06/11 08:25:24;;;;;;;13.95;11.25;;;20.40;99.90;;;;;;5111584;28;20039;-85
2021/06/11 08:28:04;;;;;;;13.73;10.10;;;20.40;99.90;;;;;;5112836;28;20028;-85
2021/06/11 08:30:30;;;;;;;13.65;10.07;;;20.50;99.90;;;;;;5095138;28;20034;-84
2021/06/11 08:32:58;;;;;;;13.38;9.90;;;20.60;99.90;;;;;;5110137;28;20023;-84
2021/06/11 08:35:27;;;;;;;18.88;14.18;;;20.80;99.90;;;;;;5111330;28;20039;-85
2021/06/11 08:38:47;;;;;;;18.13;13.85;;;20.90;99.90;;;;;;5111021;28;20028;-84
2021/06/11 08:41:18;;;;;;;16.48;12.18;;;20.90;99.90;;;;;;5101249;28;20044;-83
2021/06/11 08:44:04;;;;;;;15.75;12.20;;;21.00;99.90;;;;;;5124061;28;20396;-85
2021/06/11 08:46:46;;;;;;;;;;;;;;;;;;;;;
2021/06/11 08:49:25;;;;;;;16.97;12.60;;;21.20;99.90;;;;;;5105991;28;20058;-84
2021/06/11 08:51:59;;;;;;;16.95;12.23;;;21.40;99.90;;;;;;5113952;28;20020;-84
2021/06/11 08:54:30;;;;;;;15.88;12.52;;;21.50;99.90;;;;;;5113946;28;20638;-84
2021/06/11 08:57:07;;;;;;;14.45;12.30;;;21.70;99.90;;;;;;5113981;28;20379;-84
2021/06/11 08:59:43;;;;;;;18.27;12.00;;;21.90;99.90;;;;;;5117243;27;20031;-83
2021/06/11 09:02:14;;;;;;;15.77;11.15;;;21.90;99.90;;;;;;5107026;28;20028;-84
2021/06/11 09:04:51;;;;;;;14.38;10.88;;;22.10;99.90;;;;;;5114078;28;20012;-85
2021/06/11 09:07:34;;;;;;;15.55;12.52;;;22.30;99.90;;;;;;5113528;28;20052;-84
2021/06/11 09:10:08;;;;;;;18.70;13.48;;;22.40;99.90;;;;;;5115077;28;20034;-84
2021/06/11 09:12:39;;;;;;;15.20;12.07;;;22.40;99.90;;;;;;5114755;28;20027;-82
2021/06/11 09:15:09;;;;;;;15.90;11.95;;;22.50;99.90;;;;;;5106552;27;20461;-82
2021/06/11 09:17:37;;;;;;;13.27;10.75;;;22.60;99.90;;;;;;5112809;28;20773;-83
2021/06/11 09:20:13;;;;;;;14.52;10.60;;;22.70;99.90;;;;;;5113781;28;20578;-81
2021/06/11 09:22:50;;;;;;;17.95;11.85;;;22.80;99.90;;;;;;5113856;28;20039;-82
2021/06/11 09:25:33;;;;;;;15.27;12.10;;;22.90;99.90;;;;;;5112676;28;20265;-83
2021/06/11 09:28:12;;;;;;;17.50;12.18;;;23.00;99.90;;;;;;5113672;28;20476;-83
2021/06/11 09:30:42;;;;;;;13.07;10.32;;;23.20;99.90;;;;;;5113319;28;20404;-83
2021/06/11 09:33:12;;;;;;;13.90;10.65;;;23.60;99.90;;;;;;5113211;28;20023;-83
2021/06/11 09:35:51;;;;;;;14.35;10.25;;;24.50;99.90;;;;;;5114108;28;20074;-84
2021/06/11 09:38:30;;;;;;;12.77;9.45;;;25.30;99.90;;;;;;5113332;28;20077;-83
2021/06/11 09:41:02;;;;;;;12.65;10.07;;;26.10;99.30;;;;;;5113107;28;20031;-82
2021/06/11 09:43:31;;;;;;;10.88;9.63;;;26.80;97.90;;;;;;5113504;28;20046;-82
2021/06/11 09:46:12;;;;;;;10.57;8.73;;;27.30;97.10;;;;;;5112631;28;20515;-83
2021/06/11 09:48:47;;;;;;;11.48;8.45;;;27.80;96.30;;;;;;5112962;28;20475;-84
2021/06/11 09:51:20;;;;;;;13.27;10.35;;;28.40;95.70;;;;;;5112923;28;20061;-84
2021/06/11 09:53:49;;;;;;;11.82;9.90;;;28.70;94.60;;;;;;5116917;27;20031;-83
2021/06/11 09:56:27;;;;;;;10.13;8.35;;;28.90;94.00;;;;;;5125787;28;20049;-83
2021/06/11 09:58:54;;;;;;;10.13;9.02;;;29.20;94.00;;;;;;5135318;28;20023;-82
2021/06/11 10:01:41;;;;;;;8.13;6.93;;;29.40;93.40;;;;;;5114616;28;20380;-84
2021/06/11 10:04:07;;;;;;;13.00;11.60;;;29.60;92.40;;;;;;5111233;28;20023;-84
2021/06/11 10:07:00;;;;;;;9.23;7.35;;;29.00;91.60;;;;;;5112243;28;20116;-85
2021/06/11 10:09:26;;;;;;;9.65;7.25;;;28.80;92.40;;;;;;5086679;28;20063;-82
2021/06/11 10:11:51;;;;;;;8.23;6.82;;;28.90;92.50;;;;;;5112371;28;20034;-83
2021/06/11 10:14:28;;;;;;;;;;;;;;;;;;;;;
2021/06/11 10:16:54;;;;;;;11.38;8.52;;;29.50;91.70;;;;;;5097170;28;20031;-82
2021/06/11 10:19:20;;;;;;;11.80;8.68;;;29.70;91.10;;;;;;5113096;28;20107;-82
2021/06/11 10:21:46;;;;;;;10.93;8.02;;;29.70;91.00;;;;;;5114236;28;20030;-83
2021/06/11 10:24:34;;;;;;;10.70;8.80;;;30.00;91.20;;;;;;5110908;28;20484;-82
2021/06/11 10:27:01;;;;;;;9.77;6.40;;;30.50;90.00;;;;;;5112347;28;20016;-82
2021/06/11 10:29:30;;;;;;;11.80;8.77;;;30.70;90.10;;;;;;5111853;28;20387;-82
2021/06/11 10:31:58;;;;;;;8.35;7.25;;;30.80;87.70;;;;;;5110187;28;20023;-83
2021/06/11 10:34:56;;;;;;;9.25;8.13;;;30.70;87.90;;;;;;5109897;28;20054;-82
2021/06/11 10:37:50;;;;;;;8.57;6.18;;;31.10;87.50;;;;;;5089898;28;20371;-84
2021/06/11 10:40:43;;;;;;;10.10;6.57;;;31.10;87.40;;;;;;5086730;28;20019;-83
2021/06/11 10:43:34;;;;;;;8.15;6.10;;;30.80;86.70;;;;;;5114136;27;20038;-83
2021/06/11 10:46:46;;;;;;;7.43;5.60;;;30.20;88.00;;;;;;5120947;27;20036;-83
2021/06/11 10:49:11;;;;;;;7.40;6.40;;;30.30;88.60;;;;;;5103945;28;20051;-83
2021/06/11 10:51:49;;;;;;;7.70;5.97;;;30.30;87.60;;;;;;5110387;28;20028;-83
2021/06/11 10:54:35;;;;;;;9.05;6.70;;;29.70;88.40;;;;;;5110400;28;20539;-82
2021/06/11 10:57:20;;;;;;;7.95;6.05;;;29.50;89.00;;;;;;5115096;27;20440;-82
2021/06/11 11:00:17;;;;;;;8.70;7.10;;;29.80;88.30;;;;;;5111210;28;20031;-83
2021/06/11 11:02:57;;;;;;;8.30;6.45;;;29.50;87.80;;;;;;5096159;28;20036;-83
2021/06/11 11:05:31;;;;;;;6.78;5.03;;;29.60;88.30;;;;;;5111656;28;20051;-82
2021/06/11 11:08:11;;;;;;;9.52;6.38;;;30.30;88.00;;;;;;5111361;28;20111;-83
2021/06/11 11:10:40;;;;;;;10.80;5.85;;;30.30;85.80;;;;;;5094846;28;20023;-83
2021/06/11 11:13:16;;;;;;;7.97;5.78;;;29.80;86.60;;;;;;5107597;27;20475;-83
2021/06/11 11:16:00;;;;;;;6.43;4.93;;;30.20;86.70;;;;;;5112312;28;20110;-82
2021/06/11 11:19:10;;;;;;;6.53;5.53;;;31.00;86.00;;;;;;5111386;28;20526;-83
2021/06/11 11:21:59;;;;;;;5.65;4.47;;;31.90;83.20;;;;;;5097153;28;20126;-82
2021/06/11 11:24:27;;;;;;;5.22;4.40;;;32.20;80.60;;;;;;5114153;27;20460;-82
2021/06/11 11:26:53;;;;;;;8.00;5.30;;;32.40;80.80;;;;;;5114344;28;20371;-82
2021/06/11 11:29:28;;;;;;;6.85;5.13;;;32.60;79.30;;;;;;5096058;28;20044;-81
2021/06/11 11:31:54;;;;;;;6.10;4.32;;;32.80;78.40;;;;;;5111422;28;20471;-81
2021/06/11 11:34:20;;;;;;;6.88;5.35;;;32.70;77.80;;;;;;5112172;28;20064;-81
2021/06/11 11:36:47;;;;;;;5.55;4.93;;;32.20;78.60;;;;;;5112944;28;20128;-82
2021/06/11 11:39:13;;;;;;;5.93;4.82;;;32.40;79.10;;;;;;5109303;28;20394;-82
2021/06/11 11:41:40;;;;;;;7.15;4.75;;;32.70;76.60;;;;;;5114370;28;20020;-81
2021/06/11 11:44:14;;;;;;;5.05;4.13;;;32.00;76.40;;;;;;5132843;27;20031;-81
2021/06/11 11:46:40;;;;;;;7.20;6.15;;;31.00;78.20;;;;;;5137848;27;20027;-81
2021/06/11 11:49:08;;;;;;;7.45;6.13;;;30.10;79.80;;;;;;5118920;28;20047;-81
2021/06/11 11:51:34;;;;;;;7.55;5.47;;;29.60;81.20;;;;;;5113600;28;20089;-81
2021/06/11 11:54:01;;;;;;;7.03;5.63;;;30.10;81.40;;;;;;5112737;28;20028;-81
2021/06/11 11:56:29;;;;;;;7.25;5.57;;;30.90;80.00;;;;;;5115667;27;20120;-81
2021/06/11 11:59:09;;;;;;;5.30;4.63;;;31.40;79.10;;;;;;5104990;28;20016;-81
2021/06/11 12:01:39;;;;;;;7.55;5.25;;;32.00;77.50;;;;;;5117563;27;20027;-81
2021/06/11 12:04:05;;;;;;;7.25;5.80;;;32.20;76.60;;;;;;5114602;28;20084;-81
2021/06/11 12:06:31;;;;;;;6.20;4.55;;;32.70;76.10;;;;;;5116657;27;20479;-82
2021/06/11 12:09:00;;;;;;;8.13;4.55;;;32.90;75.90;;;;;;5122116;27;20018;-81
2021/06/11 12:11:25;;;;;;;9.63;6.20;;;33.40;75.60;;;;;;5121028;28;20031;-82
2021/06/11 12:13:57;;;;;;;7.13;5.68;;;33.50;73.70;;;;;;5112664;28;20023;-82
2021/06/11 12:16:25;;;;;;;4.88;3.95;;;33.50;72.20;;;;;;5112047;28;20455;-82
2021/06/11 12:18:50;;;;;;;7.68;5.88;;;33.70;72.40;;;;;;5113198;28;20043;-81
2021/06/11 12:21:18;;;;;;;5.43;3.92;;;33.70;71.30;;;;;;5093327;28;20051;-81
2021/06/11 12:23:43;;;;;;;5.93;4.25;;;33.80;72.20;;;;;;5114232;28;20019;-82
2021/06/11 12:26:09;;;;;;;5.40;4.30;;;34.20;72.10;;;;;;5097614;28;20031;-82
2021/06/11 12:28:39;;;;;;;6.70;4.22;;;34.10;71.30;;;;;;5117214;28;20024;-82
2021/06/11 12:31:05;;;;;;;6.65;5.00;;;33.50;71.80;;;;;;5116374;28;20480;-83
2021/06/11 12:33:31;;;;;;;5.28;4.32;;;33.50;71.70;;;;;;5116279;28;20110;-82
2021/06/11 12:35:57;;;;;;;8.13;5.85;;;33.70;71.30;;;;;;5082542;28;20036;-82
2021/06/11 12:38:22;;;;;;;8.40;5.20;;;33.60;70.90;;;;;;5117561;28;20367;-82
2021/06/11 12:40:51;;;;;;;5.72;4.28;;;33.40;70.50;;;;;;5115886;28;20019;-82
2021/06/11 12:43:20;;;;;;;7.05;5.78;;;33.50;70.90;;;;;;5109715;28;20024;-82
2021/06/11 12:45:46;;;;;;;5.80;4.72;;;33.90;69.60;;;;;;5124228;28;20085;-82
2021/06/11 12:48:13;;;;;;;9.13;6.65;;;34.00;69.30;;;;;;5116491;28;20114;-84
2021/06/11 12:50:42;;;;;;;7.97;6.80;;;34.10;68.10;;;;;;5116752;28;20028;-83
2021/06/11 12:53:07;;;;;;;7.20;6.00;;;33.70;67.70;;;;;;5116024;28;20475;-83
2021/06/11 12:55:48;;;;;;;7.10;5.68;;;33.70;68.10;;;;;;5117463;28;20535;-84
2021/06/11 12:58:17;;;;;;;6.57;4.55;;;33.50;67.40;;;;;;5117205;28;20031;-84
2021/06/11 13:00:52;;;;;;;11.98;6.45;;;33.80;68.40;;;;;;5116503;28;20055;-84
2021/06/11 13:03:21;;;;;;;8.18;5.38;;;34.00;67.20;;;;;;5116804;28;20487;-84
2021/06/11 13:05:55;;;;;;;7.97;5.45;;;33.60;67.70;;;;;;5098066;28;20101;-85
2021/06/11 13:08:27;;;;;;;9.07;5.88;;;33.30;67.50;;;;;;5117224;28;20537;-84
2021/06/11 13:11:12;;;;;;;6.43;5.13;;;32.80;67.10;;;;;;5099521;28;20024;-83